Time;durP1;ratioP1;P1;durP2;ratioP2;P2;SDS_P1;SDS_P2;PMS_P1;PMS_P2;Temp;Humidity;BMP_temperature;BMP_pressure;BME280_temperature;BME280_humidity;BME280_pressure;Samples;Min_cycle;Max_cycle;Signal;HPM_P1;HPM_P2
2022/10/30 00:01:55;;;;;;;15.25;10.45;;;27.40;99.90;;;;;;4996112;28;20039;-66
2022/10/30 00:04:22;;;;;;;19.60;10.38;;;27.50;99.90;;;;;;4995972;28;20035;-66
2022/10/30 00:06:49;;;;;;;19.88;11.23;;;27.40;99.90;;;;;;4996098;28;20531;-66
2022/10/30 00:09:15;;;;;;;17.05;10.20;;;27.40;99.90;;;;;;4996010;28;20028;-66
2022/10/30 00:11:42;;;;;;;25.17;9.65;;;27.40;99.90;;;;;;4995936;28;20054;-66
2022/10/30 00:14:08;;;;;;;16.70;10.13;;;27.30;99.90;;;;;;4995843;28;20035;-66
2022/10/30 00:16:35;;;;;;;14.95;8.27;;;27.30;99.90;;;;;;4996065;28;20487;-66
2022/10/30 00:19:01;;;;;;;17.33;8.35;;;27.30;99.90;;;;;;4995972;28;20026;-67
2022/10/30 00:21:28;;;;;;;89.13;60.60;;;27.30;99.90;;;;;;4995861;28;20030;-65
2022/10/30 00:23:54;;;;;;;35.45;21.23;;;27.30;99.90;;;;;;4995591;28;20027;-65
2022/10/30 00:26:22;;;;;;;101.60;76.07;;;27.30;99.90;;;;;;4995163;28;20105;-65
2022/10/30 00:28:53;;;;;;;49.65;31.05;;;27.30;99.90;;;;;;4995519;28;20061;-64
2022/10/30 00:31:20;;;;;;;35.50;19.30;;;27.40;99.90;;;;;;4995586;28;20042;-65
2022/10/30 00:33:51;;;;;;;29.25;15.80;;;27.40;99.90;;;;;;4995295;28;20033;-65
2022/10/30 00:36:18;;;;;;;28.05;14.43;;;27.40;99.90;;;;;;4995407;28;20113;-65
2022/10/30 00:38:45;;;;;;;24.08;13.05;;;27.40;99.90;;;;;;4995500;28;20035;-64
2022/10/30 00:41:22;;;;;;;22.65;9.95;;;27.40;99.90;;;;;;4995152;28;20026;-64
2022/10/30 00:43:49;;;;;;;22.00;11.25;;;27.40;99.90;;;;;;5005433;28;20057;-66
2022/10/30 00:46:18;;;;;;;24.08;12.00;;;27.40;99.90;;;;;;5004724;28;20022;-66
2022/10/30 00:48:51;;;;;;;24.38;13.15;;;27.40;99.90;;;;;;5003987;28;20116;-65
2022/10/30 00:51:18;;;;;;;31.20;14.93;;;27.50;99.90;;;;;;5003040;28;20031;-65
2022/10/30 00:53:46;;;;;;;28.80;12.93;;;27.60;99.90;;;;;;5003773;28;20030;-65
2022/10/30 00:56:16;;;;;;;22.73;10.95;;;27.60;99.90;;;;;;5004766;28;20545;-65
2022/10/30 00:58:49;;;;;;;19.42;12.25;;;27.70;99.90;;;;;;5008983;28;20525;-65
2022/10/30 01:01:21;;;;;;;17.02;11.45;;;27.70;99.90;;;;;;5002787;28;20054;-64
2022/10/30 01:03:48;;;;;;;;;;;27.70;99.90;;;;;;5003675;28;20018;-65
2022/10/30 01:06:16;;;;;;;19.17;10.43;;;27.80;99.90;;;;;;5004895;28;19912;-65
2022/10/30 01:08:44;;;;;;;23.13;10.13;;;27.80;99.90;;;;;;5003960;28;20054;-65
2022/10/30 01:11:11;;;;;;;16.98;8.73;;;27.90;99.90;;;;;;5002789;28;20018;-65
2022/10/30 01:13:41;;;;;;;20.42;9.73;;;28.00;99.90;;;;;;5002881;28;20037;-65
2022/10/30 01:16:17;;;;;;;19.55;10.43;;;28.10;99.90;;;;;;5003326;28;20026;-65
2022/10/30 01:19:05;;;;;;;18.08;9.88;;;28.20;99.90;;;;;;5003785;28;20105;-66
2022/10/30 01:21:55;;;;;;;19.23;9.98;;;28.30;99.90;;;;;;4932906;29;20103;-67
2022/10/30 01:24:22;;;;;;;20.48;9.93;;;28.30;99.90;;;;;;4933429;29;20066;-65
2022/10/30 01:27:03;;;;;;;22.63;9.00;;;28.30;99.90;;;;;;4933784;29;20176;-65
2022/10/30 01:29:40;;;;;;;18.83;8.53;;;28.30;99.90;;;;;;4932639;29;20255;-65
2022/10/30 01:32:14;;;;;;;14.65;6.93;;;28.30;99.90;;;;;;4933604;29;20273;-68
2022/10/30 01:34:41;;;;;;;13.85;7.25;;;28.40;99.90;;;;;;4933664;29;20048;-68
2022/10/30 01:37:24;;;;;;;16.83;7.03;;;28.60;99.90;;;;;;4933250;29;20172;-66
2022/10/30 01:39:52;;;;;;;13.32;7.53;;;28.70;99.90;;;;;;4933107;29;20481;-66
2022/10/30 01:42:40;;;;;;;12.48;6.13;;;28.80;99.90;;;;;;4935544;29;20036;-66
2022/10/30 01:45:08;;;;;;;13.55;5.70;;;28.80;99.90;;;;;;4936133;29;20028;-64
2022/10/30 01:48:07;;;;;;;10.82;5.25;;;29.00;99.90;;;;;;4935441;29;20162;-65
2022/10/30 01:50:40;;;;;;;17.23;6.13;;;29.10;99.90;;;;;;4935392;29;20179;-66
2022/10/30 01:53:42;;;;;;;113.13;64.20;;;29.00;99.90;;;;;;4935298;29;20055;-66
2022/10/30 01:56:21;;;;;;;30.50;18.00;;;29.00;99.90;;;;;;4934140;29;20028;-69
2022/10/30 01:58:53;;;;;;;19.98;9.85;;;28.80;99.90;;;;;;4935818;29;20341;-66
2022/10/30 02:01:20;;;;;;;15.15;8.02;;;28.90;99.90;;;;;;4933252;29;20461;-65
2022/10/30 02:03:48;;;;;;;15.70;6.00;;;29.00;99.90;;;;;;4935475;29;20511;-66
2022/10/30 02:06:14;;;;;;;16.40;7.05;;;28.90;99.90;;;;;;5004248;28;20054;-64
2022/10/30 02:08:41;;;;;;;12.32;5.78;;;28.90;99.90;;;;;;5008613;28;20521;-64
2022/10/30 02:11:10;;;;;;;45.50;9.52;;;29.00;99.90;;;;;;5009253;28;20018;-65
2022/10/30 02:13:37;;;;;;;14.95;6.47;;;29.00;99.90;;;;;;5004077;28;20029;-64
2022/10/30 02:16:04;;;;;;;27.23;15.82;;;29.10;99.90;;;;;;5005240;28;20273;-64
2022/10/30 02:18:30;;;;;;;22.35;11.77;;;29.00;99.90;;;;;;5006108;28;20058;-65
2022/10/30 02:20:57;;;;;;;24.35;12.90;;;29.10;99.90;;;;;;5004490;28;20019;-64
2022/10/30 02:23:23;;;;;;;18.25;8.52;;;29.30;99.90;;;;;;5005074;28;20026;-66
2022/10/30 02:25:50;;;;;;;13.50;9.35;;;29.30;99.90;;;;;;5006063;28;20365;-66
2022/10/30 02:28:16;;;;;;;19.60;11.27;;;29.30;99.90;;;;;;5004525;28;20022;-65
2022/10/30 02:30:43;;;;;;;17.60;7.47;;;29.30;99.90;;;;;;5005281;28;20041;-67
2022/10/30 02:33:10;;;;;;;31.52;9.25;;;29.40;99.90;;;;;;5005998;28;20039;-67
2022/10/30 02:35:37;;;;;;;13.00;6.78;;;29.40;99.90;;;;;;5004265;28;20026;-66
2022/10/30 02:38:03;;;;;;;123.50;18.20;;;29.40;99.90;;;;;;5010488;28;20110;-68
2022/10/30 02:40:30;;;;;;;137.00;18.42;;;29.30;99.90;;;;;;5004636;28;20125;-67
2022/10/30 02:42:56;;;;;;;68.70;12.60;;;29.40;99.90;;;;;;5006351;28;20471;-66
2022/10/30 02:45:23;;;;;;;56.97;9.43;;;29.60;99.90;;;;;;5005006;28;20027;-66
2022/10/30 02:47:50;;;;;;;28.17;6.97;;;29.60;99.90;;;;;;5004681;28;20013;-68
2022/10/30 02:50:16;;;;;;;30.65;7.03;;;29.70;99.90;;;;;;5009679;23;20047;-66
2022/10/30 02:52:43;;;;;;;84.72;12.57;;;29.70;99.90;;;;;;4969143;28;20064;-65
2022/10/30 02:55:10;;;;;;;44.67;8.65;;;29.80;99.90;;;;;;4968941;28;20272;-68
2022/10/30 02:57:36;;;;;;;42.63;13.23;;;29.90;99.90;;;;;;4970820;28;20046;-68
2022/10/30 03:00:03;;;;;;;26.05;8.98;;;30.00;99.90;;;;;;4971592;28;20476;-69
2022/10/30 03:02:30;;;;;;;21.10;8.02;;;30.20;99.90;;;;;;4972280;28;20042;-69
2022/10/30 03:04:56;;;;;;;23.73;6.93;;;30.20;99.90;;;;;;4966514;28;20062;-67
2022/10/30 03:07:23;;;;;;;114.15;14.05;;;30.10;99.90;;;;;;4969819;28;20074;-66
2022/10/30 03:09:51;;;;;;;89.72;13.05;;;30.00;99.90;;;;;;4970356;28;20042;-67
2022/10/30 03:12:17;;;;;;;157.65;17.98;;;30.20;99.90;;;;;;4968610;28;20032;-66
2022/10/30 03:14:44;;;;;;;78.05;12.68;;;30.20;99.90;;;;;;5002541;23;20046;-66
2022/10/30 03:17:10;;;;;;;56.88;9.70;;;30.30;99.90;;;;;;4999474;28;20037;-66
2022/10/30 03:19:37;;;;;;;105.32;14.85;;;30.20;99.90;;;;;;4998201;28;20018;-65
2022/10/30 03:22:03;;;;;;;113.10;16.08;;;30.30;99.90;;;;;;4998813;28;20042;-65
2022/10/30 03:24:30;;;;;;;75.28;11.57;;;30.30;99.90;;;;;;4999295;28;20038;-65
2022/10/30 03:26:57;;;;;;;65.25;7.95;;;30.30;99.90;;;;;;4994807;28;20160;-65
2022/10/30 03:29:23;;;;;;;23.95;6.00;;;30.60;99.90;;;;;;4999139;28;20030;-65
2022/10/30 03:31:50;;;;;;;13.95;4.70;;;30.70;99.90;;;;;;5000151;28;20037;-65
2022/10/30 03:34:16;;;;;;;13.82;4.97;;;30.60;99.90;;;;;;4999133;28;20031;-64
2022/10/30 03:36:43;;;;;;;12.20;5.20;;;30.50;99.90;;;;;;4999909;28;20034;-65
2022/10/30 03:39:09;;;;;;;21.30;5.85;;;30.40;99.90;;;;;;4999251;28;20035;-65
2022/10/30 03:41:36;;;;;;;16.55;6.30;;;30.40;99.90;;;;;;4999123;28;20435;-65
2022/10/30 03:44:02;;;;;;;19.17;12.27;;;30.60;99.90;;;;;;4999115;28;20038;-66
2022/10/30 03:46:30;;;;;;;37.80;16.83;;;30.60;99.90;;;;;;4997809;28;20444;-64
2022/10/30 03:48:56;;;;;;;12.80;8.18;;;30.60;99.90;;;;;;4997027;28;20415;-65
2022/10/30 03:51:23;;;;;;;16.52;10.10;;;30.60;99.90;;;;;;4997624;28;20030;-65
2022/10/30 03:53:49;;;;;;;14.43;4.53;;;30.70;99.90;;;;;;4997470;28;20057;-65
2022/10/30 03:56:16;;;;;;;12.65;4.10;;;30.70;99.90;;;;;;4997264;28;20061;-65
2022/10/30 03:58:42;;;;;;;66.82;13.02;;;30.60;99.90;;;;;;4997779;28;20030;-65
2022/10/30 04:01:09;;;;;;;136.80;20.58;;;30.60;99.90;;;;;;4997051;28;20034;-66
2022/10/30 04:03:36;;;;;;;80.97;13.88;;;30.50;99.90;;;;;;4998687;28;20109;-66
2022/10/30 04:06:03;;;;;;;17.73;7.75;;;30.50;99.90;;;;;;4998580;28;20031;-66
2022/10/30 04:08:29;;;;;;;41.92;10.30;;;30.50;99.90;;;;;;4998608;28;20023;-66
2022/10/30 04:10:56;;;;;;;12.23;4.38;;;30.40;99.90;;;;;;4998640;28;20037;-66
2022/10/30 04:13:22;;;;;;;33.10;10.80;;;30.30;99.90;;;;;;4979392;28;20027;-66
2022/10/30 04:15:49;;;;;;;14.93;6.00;;;30.30;99.90;;;;;;4978520;28;20055;-66
2022/10/30 04:18:16;;;;;;;14.30;5.50;;;30.30;99.90;;;;;;4978345;28;20030;-66
2022/10/30 04:20:44;;;;;;;12.00;5.45;;;30.30;99.90;;;;;;4978706;28;20420;-66
2022/10/30 04:23:15;;;;;;;8.57;3.13;;;30.30;99.90;;;;;;4978499;28;20027;-66
2022/10/30 04:25:42;;;;;;;9.82;4.65;;;30.40;99.90;;;;;;4978818;28;20031;-66
2022/10/30 04:28:09;;;;;;;6.40;4.30;;;30.40;99.90;;;;;;4978351;28;20030;-66
2022/10/30 04:30:37;;;;;;;10.60;4.57;;;30.40;99.90;;;;;;4976806;28;20023;-66
2022/10/30 04:33:06;;;;;;;6.95;3.95;;;30.40;99.90;;;;;;4976999;28;20440;-65
2022/10/30 04:35:35;;;;;;;10.40;3.33;;;30.40;99.90;;;;;;4979229;28;20031;-66
2022/10/30 04:38:06;;;;;;;6.07;3.55;;;30.40;99.90;;;;;;4980579;28;20122;-66
2022/10/30 04:40:34;;;;;;;75.53;11.85;;;30.50;99.90;;;;;;4984458;28;20022;-66
2022/10/30 04:43:01;;;;;;;4.95;2.88;;;30.60;99.90;;;;;;4985573;28;20027;-66
2022/10/30 04:45:28;;;;;;;169.50;21.83;;;30.60;99.90;;;;;;4985644;28;20022;-66
2022/10/30 04:48:05;;;;;;;25.70;5.45;;;30.60;99.90;;;;;;4984420;28;20061;-66
2022/10/30 04:50:32;;;;;;;8.10;3.13;;;30.70;99.90;;;;;;4983918;28;20058;-66
2022/10/30 04:53:05;;;;;;;5.15;2.80;;;30.70;99.90;;;;;;4985942;28;20502;-64
2022/10/30 04:55:32;;;;;;;9.85;3.63;;;30.70;99.90;;;;;;4986013;28;20069;-66
2022/10/30 04:58:01;;;;;;;11.88;3.75;;;30.70;99.90;;;;;;4984527;28;20027;-66
2022/10/30 05:00:29;;;;;;;8.30;3.80;;;30.70;99.90;;;;;;4984035;28;20077;-65
2022/10/30 05:03:00;;;;;;;6.57;3.22;;;30.70;99.90;;;;;;4982923;28;20023;-66
2022/10/30 05:05:28;;;;;;;13.93;4.05;;;30.70;99.90;;;;;;4979131;28;20026;-67
2022/10/30 05:07:55;;;;;;;13.95;3.67;;;30.70;99.90;;;;;;4985757;28;20050;-66
2022/10/30 05:10:22;;;;;;;13.48;3.38;;;30.60;99.90;;;;;;4985726;28;20464;-66
2022/10/30 05:12:50;;;;;;;13.20;4.50;;;30.70;99.90;;;;;;4985685;28;20126;-67
2022/10/30 05:15:17;;;;;;;14.63;4.07;;;30.70;99.90;;;;;;4981104;28;20053;-66
2022/10/30 05:17:43;;;;;;;11.82;4.95;;;30.70;99.90;;;;;;4984693;28;20069;-67
2022/10/30 05:20:10;;;;;;;10.10;3.63;;;30.90;99.90;;;;;;4985094;28;20023;-66
2022/10/30 05:22:37;;;;;;;11.10;3.78;;;30.90;99.90;;;;;;4983819;28;20014;-66
2022/10/30 05:25:03;;;;;;;8.98;3.50;;;30.90;99.90;;;;;;4984086;28;20137;-67
2022/10/30 05:27:30;;;;;;;13.90;4.13;;;30.90;99.90;;;;;;4985107;28;20038;-66
2022/10/30 05:29:56;;;;;;;9.82;3.63;;;30.90;99.90;;;;;;4983450;28;20062;-66
2022/10/30 05:32:23;;;;;;;7.82;3.92;;;30.90;99.90;;;;;;4984180;28;20464;-66
2022/10/30 05:34:49;;;;;;;20.48;10.20;;;30.90;99.90;;;;;;4985225;28;20105;-66
2022/10/30 05:37:16;;;;;;;24.17;7.45;;;30.90;99.90;;;;;;4980514;28;20027;-65
2022/10/30 05:39:42;;;;;;;30.63;9.45;;;31.00;99.90;;;;;;4979185;28;20030;-67
2022/10/30 05:42:09;;;;;;;13.18;5.47;;;31.10;99.90;;;;;;4977735;28;20035;-66
2022/10/30 05:44:35;;;;;;;18.67;8.90;;;31.20;99.90;;;;;;4987413;28;20084;-66
2022/10/30 05:47:02;;;;;;;14.00;5.63;;;31.30;99.90;;;;;;4988884;28;20022;-65
2022/10/30 05:49:29;;;;;;;10.75;5.57;;;31.30;99.90;;;;;;4988667;28;20479;-64
2022/10/30 05:51:55;;;;;;;31.10;16.73;;;31.30;99.90;;;;;;4987849;28;20034;-67
2022/10/30 05:54:22;;;;;;;14.70;3.95;;;31.40;99.90;;;;;;4988339;28;20415;-65
2022/10/30 05:56:48;;;;;;;14.35;3.95;;;31.40;99.90;;;;;;4979697;28;20847;-65
2022/10/30 05:59:15;;;;;;;15.70;7.15;;;31.40;99.90;;;;;;4979005;28;20035;-63
2022/10/30 06:01:41;;;;;;;29.13;13.68;;;31.40;99.90;;;;;;4978138;28;20081;-64
2022/10/30 06:04:08;;;;;;;21.30;8.27;;;31.40;99.90;;;;;;4981349;28;20035;-63
2022/10/30 06:06:34;;;;;;;22.77;8.88;;;31.50;99.90;;;;;;4987319;28;20175;-65
2022/10/30 06:09:01;;;;;;;8.10;4.28;;;31.50;99.90;;;;;;4983766;28;20023;-66
2022/10/30 06:11:27;;;;;;;12.10;4.72;;;31.50;99.90;;;;;;4983168;28;20034;-65
2022/10/30 06:13:54;;;;;;;22.60;12.70;;;31.50;99.90;;;;;;4983236;28;20025;-66
2022/10/30 06:16:20;;;;;;;53.67;34.92;;;31.50;99.90;;;;;;4967242;28;20448;-66
2022/10/30 06:18:47;;;;;;;48.85;33.83;;;31.60;99.90;;;;;;4984754;28;20102;-66
2022/10/30 06:21:13;;;;;;;14.90;9.80;;;31.60;99.90;;;;;;4983076;28;20527;-65
2022/10/30 06:23:40;;;;;;;11.40;4.38;;;31.60;99.90;;;;;;4981630;28;20030;-65
2022/10/30 06:26:06;;;;;;;13.98;4.43;;;31.60;99.90;;;;;;4987194;28;20382;-66
2022/10/30 06:28:33;;;;;;;9.13;3.53;;;31.50;99.90;;;;;;4989361;28;20011;-65
2022/10/30 06:30:59;;;;;;;27.35;14.07;;;31.50;99.90;;;;;;4985675;28;20058;-67
2022/10/30 06:33:26;;;;;;;25.15;16.10;;;31.60;99.90;;;;;;4983012;28;20031;-67
2022/10/30 06:35:53;;;;;;;10.95;5.03;;;31.70;99.90;;;;;;4989074;28;20468;-67
2022/10/30 06:38:19;;;;;;;14.68;7.57;;;31.80;99.90;;;;;;4987643;28;20042;-66
2022/10/30 06:40:47;;;;;;;11.20;7.65;;;31.90;99.90;;;;;;4988007;28;20049;-66
2022/10/30 06:43:13;;;;;;;11.68;5.85;;;32.00;99.90;;;;;;4988371;28;20460;-66
2022/10/30 06:45:40;;;;;;;36.13;19.60;;;31.90;99.90;;;;;;4987863;28;20114;-65
2022/10/30 06:48:07;;;;;;;10.10;6.97;;;31.90;99.90;;;;;;4988445;28;20474;-65
2022/10/30 06:50:34;;;;;;;9.77;3.90;;;32.00;99.90;;;;;;4988879;28;20034;-65
2022/10/30 06:53:00;;;;;;;6.85;3.10;;;32.00;99.90;;;;;;4989923;28;20022;-65
2022/10/30 06:55:27;;;;;;;7.55;3.30;;;32.10;99.90;;;;;;4990611;28;20449;-64
2022/10/30 06:57:55;;;;;;;43.10;29.98;;;32.10;99.90;;;;;;4989254;28;20533;-65
2022/10/30 07:00:22;;;;;;;25.48;14.63;;;32.10;99.90;;;;;;4988425;28;20022;-64
2022/10/30 07:02:59;;;;;;;46.95;36.13;;;32.10;99.90;;;;;;4995640;28;20174;-65
2022/10/30 07:05:26;;;;;;;8.80;5.53;;;32.20;99.90;;;;;;4990502;28;20027;-64
2022/10/30 07:07:54;;;;;;;19.73;9.02;;;32.20;99.90;;;;;;4987544;28;20021;-64
2022/10/30 07:10:21;;;;;;;9.30;3.22;;;32.10;99.90;;;;;;4980290;28;20082;-65
2022/10/30 07:12:54;;;;;;;5.03;2.80;;;32.10;99.90;;;;;;4982870;28;20053;-65
2022/10/30 07:15:21;;;;;;;7.78;3.70;;;32.00;99.90;;;;;;4986614;28;20104;-64
2022/10/30 07:18:08;;;;;;;7.57;4.97;;;32.00;99.90;;;;;;4983967;28;20093;-64
2022/10/30 07:20:35;;;;;;;13.45;5.57;;;32.00;99.90;;;;;;4985814;28;20106;-65
2022/10/30 07:23:02;;;;;;;20.00;8.50;;;32.00;99.90;;;;;;4981290;28;20038;-61
2022/10/30 07:25:29;;;;;;;23.08;13.35;;;32.10;99.90;;;;;;4982628;28;20170;-64
2022/10/30 07:27:57;;;;;;;22.60;10.68;;;32.20;99.90;;;;;;4983627;28;20019;-64
2022/10/30 07:30:26;;;;;;;53.42;30.83;;;32.20;99.90;;;;;;4987892;28;20043;-63
2022/10/30 07:33:03;;;;;;;151.98;78.65;;;32.20;99.90;;;;;;4985116;28;20452;-65
2022/10/30 07:35:31;;;;;;;78.05;38.72;;;32.20;99.90;;;;;;4984466;28;20459;-65
2022/10/30 07:38:05;;;;;;;139.95;70.63;;;32.20;99.90;;;;;;4989660;28;20121;-65
2022/10/30 07:40:32;;;;;;;32.63;16.17;;;32.10;99.90;;;;;;4983987;28;20015;-65
2022/10/30 07:43:00;;;;;;;60.70;47.17;;;32.10;99.90;;;;;;4982667;28;20158;-65
2022/10/30 07:45:28;;;;;;;109.80;73.72;;;32.10;99.90;;;;;;4978267;28;20411;-64
2022/10/30 07:47:55;;;;;;;65.15;41.17;;;32.10;99.90;;;;;;4971030;28;20018;-65
2022/10/30 07:50:23;;;;;;;11.50;6.30;;;32.00;99.90;;;;;;4969342;28;20366;-65
2022/10/30 07:52:49;;;;;;;6.40;3.83;;;32.00;99.90;;;;;;4969357;28;20251;-65
2022/10/30 07:55:16;;;;;;;14.85;7.60;;;32.00;99.90;;;;;;4972235;28;20184;-65
2022/10/30 07:57:43;;;;;;;16.77;6.47;;;32.00;99.90;;;;;;4968667;28;20494;-65
2022/10/30 08:00:12;;;;;;;37.53;24.52;;;32.00;99.90;;;;;;4968642;28;20031;-63
2022/10/30 08:02:39;;;;;;;34.80;22.23;;;32.10;99.90;;;;;;4975695;28;20038;-65
2022/10/30 08:05:06;;;;;;;58.60;28.05;;;32.20;99.90;;;;;;4973974;28;20066;-65
2022/10/30 08:07:35;;;;;;;238.73;114.85;;;32.30;99.90;;;;;;4969845;28;20109;-65
2022/10/30 08:10:02;;;;;;;257.83;117.80;;;32.30;99.90;;;;;;4975517;28;20022;-65
2022/10/30 08:12:31;;;;;;;12.25;6.00;;;32.40;99.90;;;;;;4970969;28;20031;-65
2022/10/30 08:14:57;;;;;;;11.98;4.55;;;32.40;99.90;;;;;;4975147;28;20051;-63
2022/10/30 08:17:24;;;;;;;8.32;5.35;;;32.30;99.90;;;;;;4973355;28;20078;-64
2022/10/30 08:19:50;;;;;;;11.40;4.85;;;32.30;99.90;;;;;;4979084;28;20034;-64
2022/10/30 08:22:17;;;;;;;20.30;13.57;;;32.30;99.90;;;;;;4975197;28;20604;-65
2022/10/30 08:24:44;;;;;;;52.03;34.83;;;32.20;99.90;;;;;;4973248;28;20077;-66
2022/10/30 08:27:10;;;;;;;302.33;173.82;;;32.30;99.90;;;;;;4975184;28;20050;-66
2022/10/30 08:29:37;;;;;;;18.73;12.20;;;32.30;99.90;;;;;;4974583;28;20030;-65
2022/10/30 08:32:03;;;;;;;25.27;11.23;;;32.30;99.90;;;;;;4975464;28;20389;-65
2022/10/30 08:34:31;;;;;;;21.80;11.25;;;32.30;99.90;;;;;;4973658;28;20496;-66
2022/10/30 08:36:58;;;;;;;634.25;429.80;;;32.20;99.90;;;;;;4975061;28;20130;-65
2022/10/30 08:39:25;;;;;;;31.15;13.63;;;32.20;99.90;;;;;;4974404;28;20027;-64
2022/10/30 08:41:52;;;;;;;26.67;13.45;;;32.10;99.90;;;;;;4973044;28;20064;-64
2022/10/30 08:44:18;;;;;;;23.35;14.65;;;32.10;99.90;;;;;;4981392;28;20121;-65
2022/10/30 08:46:45;;;;;;;21.50;13.30;;;32.10;99.90;;;;;;4973879;28;20063;-65
2022/10/30 08:49:11;;;;;;;22.23;13.50;;;32.10;99.90;;;;;;4978860;28;20559;-67
2022/10/30 08:51:38;;;;;;;23.65;11.73;;;32.10;99.90;;;;;;4973872;28;20109;-63
2022/10/30 08:54:04;;;;;;;56.13;32.90;;;32.00;99.90;;;;;;4980290;28;20050;-65
2022/10/30 08:56:31;;;;;;;32.67;20.70;;;32.00;99.90;;;;;;4978409;28;20023;-64
2022/10/30 08:58:57;;;;;;;24.85;16.63;;;32.00;99.90;;;;;;4974978;28;20481;-64
2022/10/30 09:01:24;;;;;;;30.52;16.63;;;32.00;99.90;;;;;;4972172;28;20078;-65
2022/10/30 09:03:50;;;;;;;49.22;36.85;;;31.90;99.90;;;;;;4971918;28;20019;-66
2022/10/30 09:06:17;;;;;;;43.40;29.48;;;31.90;99.90;;;;;;4977970;28;20015;-64
2022/10/30 09:08:44;;;;;;;31.83;18.13;;;31.90;99.90;;;;;;4975007;28;20114;-65
2022/10/30 09:11:11;;;;;;;33.00;16.63;;;31.90;99.90;;;;;;4975012;28;20058;-66
2022/10/30 09:13:38;;;;;;;70.00;45.45;;;31.80;99.90;;;;;;4962700;28;20476;-65
2022/10/30 09:16:05;;;;;;;70.32;46.92;;;31.70;99.90;;;;;;4962334;28;20055;-66
2022/10/30 09:18:31;;;;;;;29.83;21.35;;;31.80;99.90;;;;;;4971964;28;20066;-66
2022/10/30 09:20:58;;;;;;;50.55;33.00;;;31.80;99.90;;;;;;4974101;28;20060;-64
2022/10/30 09:23:24;;;;;;;40.30;26.60;;;31.80;99.90;;;;;;4974713;28;20027;-66
2022/10/30 09:25:52;;;;;;;23.23;14.32;;;31.90;99.90;;;;;;4978128;28;20091;-64
2022/10/30 09:28:18;;;;;;;49.17;35.05;;;31.80;99.90;;;;;;4974910;28;20058;-63
2022/10/30 09:30:45;;;;;;;46.33;35.75;;;31.70;99.90;;;;;;5020169;23;20065;-65
2022/10/30 09:33:11;;;;;;;57.55;36.80;;;31.70;99.90;;;;;;5014344;28;20105;-65
2022/10/30 09:35:38;;;;;;;53.72;37.45;;;31.70;99.90;;;;;;5014049;28;20111;-64
2022/10/30 09:38:04;;;;;;;51.78;37.55;;;31.70;99.90;;;;;;5012428;28;20104;-66
2022/10/30 09:40:45;;;;;;;51.35;36.47;;;31.70;99.90;;;;;;5013890;28;20085;-65
2022/10/30 09:43:15;;;;;;;98.77;58.87;;;31.70;99.90;;;;;;5010343;28;20026;-67
2022/10/30 09:45:52;;;;;;;130.55;91.45;;;31.60;99.90;;;;;;5014285;28;20084;-66
2022/10/30 09:48:48;;;;;;;51.65;33.53;;;31.60;99.90;;;;;;5003666;28;20018;-65
2022/10/30 09:51:36;;;;;;;54.30;34.22;;;31.60;99.90;;;;;;5009205;28;20023;-68
2022/10/30 09:54:16;;;;;;;53.85;30.02;;;31.50;99.90;;;;;;4962275;28;20160;-68
2022/10/30 09:56:53;;;;;;;35.45;24.33;;;31.50;99.90;;;;;;4962864;28;20051;-66
2022/10/30 09:59:37;;;;;;;46.20;32.60;;;31.40;99.90;;;;;;4961071;28;20042;-67
2022/10/30 10:02:19;;;;;;;39.72;27.75;;;31.40;99.90;;;;;;4963253;28;20023;-65
2022/10/30 10:04:51;;;;;;;56.17;38.45;;;31.40;99.90;;;;;;4963129;28;20070;-66
2022/10/30 10:07:28;;;;;;;;;;;31.30;99.90;;;;;;4963523;28;20042;-64
2022/10/30 10:10:25;;;;;;;67.28;49.08;;;31.30;99.90;;;;;;4963110;28;19917;-65
2022/10/30 10:12:53;;;;;;;36.72;21.67;;;31.20;99.90;;;;;;4962751;28;20569;-64
2022/10/30 10:15:51;;;;;;;36.10;20.27;;;30.90;99.90;;;;;;4964700;28;20043;-65
2022/10/30 10:18:29;;;;;;;53.90;36.83;;;30.60;99.90;;;;;;4970141;28;20110;-65
2022/10/30 10:21:00;;;;;;;37.08;25.30;;;30.50;99.90;;;;;;4968616;28;20295;-65
2022/10/30 10:23:31;;;;;;;47.63;33.87;;;30.50;99.90;;;;;;4962948;28;20050;-64
2022/10/30 10:26:03;;;;;;;37.37;24.67;;;30.30;99.90;;;;;;4947687;28;20496;-66
2022/10/30 10:28:31;;;;;;;;;;;30.10;99.90;;;;;;4962555;28;20042;-65
2022/10/30 10:31:19;;;;;;;36.67;23.15;;;29.60;99.90;;;;;;4962541;28;20013;-66
2022/10/30 10:34:05;;;;;;;65.47;44.90;;;29.40;99.90;;;;;;4968341;28;20102;-65
2022/10/30 10:36:43;;;;;;;19.58;12.82;;;29.30;99.90;;;;;;4970033;28;20053;-64
2022/10/30 10:39:18;;;;;;;30.17;20.13;;;29.00;99.90;;;;;;4986084;28;20037;-63
2022/10/30 10:42:05;;;;;;;38.40;24.48;;;28.90;99.90;;;;;;4983073;28;20066;-63
2022/10/30 10:44:33;;;;;;;33.60;21.73;;;28.90;99.90;;;;;;4986100;28;20415;-63
2022/10/30 10:47:10;;;;;;;23.33;15.80;;;28.90;99.90;;;;;;4991655;28;20022;-65
2022/10/30 10:50:13;;;;;;;33.50;19.02;;;28.60;99.90;;;;;;4987517;28;20046;-66
2022/10/30 10:52:46;;;;;;;49.30;32.30;;;28.60;99.90;;;;;;4986365;28;20039;-65
2022/10/30 10:55:21;;;;;;;59.90;33.45;;;28.60;99.90;;;;;;4985724;28;20034;-65
2022/10/30 10:57:50;;;;;;;69.63;31.88;;;28.50;99.90;;;;;;4987417;28;20038;-63
2022/10/30 11:00:21;;;;;;;97.10;36.97;;;28.60;99.90;;;;;;4984749;28;20476;-63
2022/10/30 11:02:54;;;;;;;79.30;27.80;;;28.60;99.90;;;;;;4977018;28;20507;-66
2022/10/30 11:05:52;;;;;;;54.50;19.85;;;28.80;99.90;;;;;;4985904;28;20048;-66
2022/10/30 11:08:23;;;;;;;62.40;24.90;;;28.80;99.90;;;;;;4987213;28;20092;-65
2022/10/30 11:10:57;;;;;;;64.13;26.33;;;28.80;99.90;;;;;;4983987;28;20027;-67
2022/10/30 11:13:29;;;;;;;30.80;11.15;;;28.60;99.90;;;;;;4986026;28;20022;-64
2022/10/30 11:16:21;;;;;;;40.67;18.00;;;28.50;99.90;;;;;;4987416;28;20109;-65
2022/10/30 11:18:53;;;;;;;24.27;10.40;;;28.30;99.90;;;;;;4988797;28;20043;-65
2022/10/30 11:21:23;;;;;;;18.38;7.35;;;28.20;99.90;;;;;;4985801;28;20023;-68
2022/10/30 11:23:53;;;;;;;14.05;7.40;;;28.10;99.90;;;;;;4988041;28;20034;-68
2022/10/30 11:26:19;;;;;;;42.50;17.63;;;28.10;99.90;;;;;;4985884;28;20021;-66
2022/10/30 11:28:58;;;;;;;35.05;15.38;;;28.10;99.90;;;;;;4988452;28;20018;-66
2022/10/30 11:31:36;;;;;;;13.98;6.70;;;28.00;99.90;;;;;;4988041;28;20471;-64
2022/10/30 11:34:16;;;;;;;12.65;5.72;;;27.70;99.90;;;;;;4988842;28;20050;-68
2022/10/30 11:36:46;;;;;;;26.52;16.20;;;27.60;99.90;;;;;;4985889;28;20065;-66
2022/10/30 11:39:38;;;;;;;53.63;40.85;;;27.70;99.90;;;;;;4990530;28;20034;-67
2022/10/30 11:42:12;;;;;;;139.60;100.97;;;27.60;99.90;;;;;;4986086;28;20480;-67
2022/10/30 11:44:48;;;;;;;56.67;33.45;;;27.70;99.90;;;;;;4984807;28;20100;-67
2022/10/30 11:47:17;;;;;;;47.05;30.80;;;27.90;99.90;;;;;;4982783;28;20476;-69
2022/10/30 11:49:47;;;;;;;100.68;61.63;;;28.00;99.90;;;;;;4984526;28;20495;-68
2022/10/30 11:52:18;;;;;;;139.90;91.57;;;28.10;99.90;;;;;;4986755;28;20431;-69
2022/10/30 11:54:49;;;;;;;49.45;24.25;;;28.20;99.90;;;;;;4981772;28;20034;-69
2022/10/30 11:57:22;;;;;;;111.32;68.13;;;28.20;99.90;;;;;;4985874;28;20058;-68
2022/10/30 11:59:51;;;;;;;22.88;14.35;;;28.20;99.90;;;;;;4981889;28;20090;-66
2022/10/30 12:02:39;;;;;;;52.58;32.63;;;28.20;99.90;;;;;;4988657;28;20089;-67
2022/10/30 12:05:25;;;;;;;82.80;55.17;;;28.20;99.90;;;;;;4985284;28;20030;-65
2022/10/30 12:08:11;;;;;;;47.53;27.48;;;28.30;99.90;;;;;;4990098;28;20022;-67
2022/10/30 12:10:45;;;;;;;120.90;63.30;;;28.20;99.90;;;;;;4990750;28;20034;-67
2022/10/30 12:13:19;;;;;;;202.05;115.03;;;28.20;99.90;;;;;;4988081;28;20033;-67
2022/10/30 12:15:49;;;;;;;41.70;21.33;;;28.30;99.90;;;;;;4990632;28;20018;-68
2022/10/30 12:18:25;;;;;;;25.35;14.63;;;28.10;99.90;;;;;;4989634;28;20222;-69
2022/10/30 12:20:54;;;;;;;25.00;14.50;;;28.10;99.90;;;;;;4990506;28;20050;-69
2022/10/30 12:23:25;;;;;;;45.15;28.27;;;28.00;99.90;;;;;;4988079;28;20022;-69
2022/10/30 12:25:55;;;;;;;51.38;32.75;;;28.10;99.90;;;;;;4990467;28;20015;-68
2022/10/30 12:28:26;;;;;;;38.05;22.00;;;28.10;99.90;;;;;;4990630;28;20033;-67
2022/10/30 12:30:54;;;;;;;24.60;13.40;;;28.00;99.90;;;;;;4989951;28;20125;-67
2022/10/30 12:33:49;;;;;;;33.15;20.83;;;27.90;99.90;;;;;;4989730;28;20371;-67
2022/10/30 12:36:22;;;;;;;49.00;34.85;;;27.80;99.90;;;;;;4953432;29;20091;-69
2022/10/30 12:38:53;;;;;;;119.28;65.00;;;27.80;99.90;;;;;;4951700;28;20034;-69
2022/10/30 12:41:25;;;;;;;612.85;340.45;;;27.90;99.90;;;;;;4953295;29;20020;-69
2022/10/30 12:44:12;;;;;;;214.82;99.88;;;27.90;99.90;;;;;;4953672;29;20114;-68
2022/10/30 12:46:50;;;;;;;25.45;15.77;;;27.90;99.90;;;;;;4953792;29;20027;-67